sensor_id;sensor_type;location;lat;lon;timestamp;temperature;humidity
42147;DHT22;27815;43.410;11.852;2023-12-28T00:02:06;9.30;75.60
42147;DHT22;27815;43.410;11.852;2023-12-28T00:06:08;9.40;75.60
42147;DHT22;27815;43.410;11.852;2023-12-28T00:10:12;9.40;75.50
42147;DHT22;27815;43.410;11.852;2023-12-28T00:14:15;9.50;75.50
42147;DHT22;27815;43.410;11.852;2023-12-28T00:18:18;9.50;75.60
42147;DHT22;27815;43.410;11.852;2023-12-28T00:22:25;9.50;75.60
42147;DHT22;27815;43.410;11.852;2023-12-28T00:26:28;9.50;75.50
42147;DHT22;27815;43.410;11.852;2023-12-28T00:30:39;9.50;75.70
42147;DHT22;27815;43.410;11.852;2023-12-28T00:34:42;9.60;75.60
42147;DHT22;27815;43.410;11.852;2023-12-28T00:38:44;9.50;75.60
42147;DHT22;27815;43.410;11.852;2023-12-28T00:42:48;9.60;75.50
42147;DHT22;27815;43.410;11.852;2023-12-28T00:46:51;9.60;75.50
42147;DHT22;27815;43.410;11.852;2023-12-28T00:50:54;9.60;75.50
42147;DHT22;27815;43.410;11.852;2023-12-28T00:55:01;9.50;75.50
42147;DHT22;27815;43.410;11.852;2023-12-28T00:59:04;9.40;75.70
42147;DHT22;27815;43.410;11.852;2023-12-28T01:03:07;9.30;75.90
42147;DHT22;27815;43.410;11.852;2023-12-28T01:07:11;9.30;75.90
42147;DHT22;27815;43.410;11.852;2023-12-28T01:11:14;9.30;75.90
42147;DHT22;27815;43.410;11.852;2023-12-28T01:15:16;9.40;75.90
42147;DHT22;27815;43.410;11.852;2023-12-28T01:19:20;9.40;75.80
42147;DHT22;27815;43.410;11.852;2023-12-28T01:23:26;9.30;76.00
42147;DHT22;27815;43.410;11.852;2023-12-28T01:27:28;9.30;76.10
42147;DHT22;27815;43.410;11.852;2023-12-28T01:31:31;9.40;76.00
42147;DHT22;27815;43.410;11.852;2023-12-28T01:35:34;9.50;76.00
42147;DHT22;27815;43.410;11.852;2023-12-28T01:39:37;9.50;75.90
42147;DHT22;27815;43.410;11.852;2023-12-28T01:43:41;9.50;76.00
42147;DHT22;27815;43.410;11.852;2023-12-28T01:47:45;9.50;76.10
42147;DHT22;27815;43.410;11.852;2023-12-28T01:51:49;9.50;76.00
42147;DHT22;27815;43.410;11.852;2023-12-28T01:55:52;9.60;76.00
42147;DHT22;27815;43.410;11.852;2023-12-28T01:59:55;9.60;75.90
42147;DHT22;27815;43.410;11.852;2023-12-28T02:04:01;9.60;75.90
42147;DHT22;27815;43.410;11.852;2023-12-28T02:08:05;9.70;75.90
42147;DHT22;27815;43.410;11.852;2023-12-28T02:12:08;9.80;75.90
42147;DHT22;27815;43.410;11.852;2023-12-28T02:16:39;9.70;75.90
42147;DHT22;27815;43.410;11.852;2023-12-28T02:20:45;9.60;76.20
42147;DHT22;27815;43.410;11.852;2023-12-28T02:29:10;9.50;76.30
42147;DHT22;27815;43.410;11.852;2023-12-28T02:37:28;9.50;76.30
42147;DHT22;27815;43.410;11.852;2023-12-28T02:41:33;9.40;76.30
42147;DHT22;27815;43.410;11.852;2023-12-28T02:45:37;9.50;76.20
42147;DHT22;27815;43.410;11.852;2023-12-28T02:49:40;9.40;76.30
42147;DHT22;27815;43.410;11.852;2023-12-28T02:53:43;9.40;76.20
42147;DHT22;27815;43.410;11.852;2023-12-28T02:57:46;9.40;76.30
42147;DHT22;27815;43.410;11.852;2023-12-28T03:01:49;9.40;76.30
42147;DHT22;27815;43.410;11.852;2023-12-28T03:05:53;9.40;76.30
42147;DHT22;27815;43.410;11.852;2023-12-28T03:09:56;9.40;76.40
42147;DHT22;27815;43.410;11.852;2023-12-28T03:14:00;9.50;76.50
42147;DHT22;27815;43.410;11.852;2023-12-28T03:18:04;9.50;76.50
42147;DHT22;27815;43.410;11.852;2023-12-28T03:22:07;9.50;76.40
42147;DHT22;27815;43.410;11.852;2023-12-28T03:26:10;9.50;76.40
42147;DHT22;27815;43.410;11.852;2023-12-28T03:30:13;9.50;76.40
42147;DHT22;27815;43.410;11.852;2023-12-28T03:34:16;9.40;76.50
42147;DHT22;27815;43.410;11.852;2023-12-28T03:38:20;9.40;76.60
42147;DHT22;27815;43.410;11.852;2023-12-28T03:42:23;9.40;76.60
42147;DHT22;27815;43.410;11.852;2023-12-28T03:46:26;9.40;76.60
42147;DHT22;27815;43.410;11.852;2023-12-28T03:50:29;9.40;76.60
42147;DHT22;27815;43.410;11.852;2023-12-28T03:54:32;9.40;76.50
42147;DHT22;27815;43.410;11.852;2023-12-28T03:58:35;9.40;76.70
42147;DHT22;27815;43.410;11.852;2023-12-28T04:02:38;9.40;76.70
42147;DHT22;27815;43.410;11.852;2023-12-28T04:06:41;9.40;76.60
42147;DHT22;27815;43.410;11.852;2023-12-28T04:10:47;9.30;76.80
42147;DHT22;27815;43.410;11.852;2023-12-28T04:14:50;9.30;76.90
42147;DHT22;27815;43.410;11.852;2023-12-28T04:18:52;9.30;76.90
42147;DHT22;27815;43.410;11.852;2023-12-28T04:22:55;9.40;77.00
42147;DHT22;27815;43.410;11.852;2023-12-28T04:26:58;9.50;76.90
42147;DHT22;27815;43.410;11.852;2023-12-28T04:31:05;9.40;76.90
42147;DHT22;27815;43.410;11.852;2023-12-28T04:35:09;9.40;77.00
42147;DHT22;27815;43.410;11.852;2023-12-28T04:39:12;9.40;77.00
42147;DHT22;27815;43.410;11.852;2023-12-28T04:43:16;9.50;77.00
42147;DHT22;27815;43.410;11.852;2023-12-28T04:47:19;9.40;77.00
42147;DHT22;27815;43.410;11.852;2023-12-28T04:51:21;9.40;77.10
42147;DHT22;27815;43.410;11.852;2023-12-28T04:55:24;9.50;77.10
42147;DHT22;27815;43.410;11.852;2023-12-28T04:59:28;9.50;77.00
42147;DHT22;27815;43.410;11.852;2023-12-28T05:03:31;9.50;77.00
42147;DHT22;27815;43.410;11.852;2023-12-28T05:07:34;9.50;77.10
42147;DHT22;27815;43.410;11.852;2023-12-28T05:11:36;9.40;77.20
42147;DHT22;27815;43.410;11.852;2023-12-28T05:15:39;9.50;77.20
42147;DHT22;27815;43.410;11.852;2023-12-28T05:19:42;9.50;77.30
42147;DHT22;27815;43.410;11.852;2023-12-28T05:23:45;9.50;77.30
42147;DHT22;27815;43.410;11.852;2023-12-28T05:27:48;9.40;77.40
42147;DHT22;27815;43.410;11.852;2023-12-28T05:31:51;9.50;77.40
42147;DHT22;27815;43.410;11.852;2023-12-28T05:35:54;9.50;77.30
42147;DHT22;27815;43.410;11.852;2023-12-28T05:39:57;9.60;77.30
42147;DHT22;27815;43.410;11.852;2023-12-28T05:44:00;9.60;77.20
42147;DHT22;27815;43.410;11.852;2023-12-28T05:48:03;9.60;77.20
42147;DHT22;27815;43.410;11.852;2023-12-28T05:52:07;9.60;77.30
42147;DHT22;27815;43.410;11.852;2023-12-28T05:56:14;9.60;77.20
42147;DHT22;27815;43.410;11.852;2023-12-28T06:00:18;9.70;77.20
42147;DHT22;27815;43.410;11.852;2023-12-28T06:04:20;9.70;77.20
42147;DHT22;27815;43.410;11.852;2023-12-28T06:08:24;9.80;77.10
42147;DHT22;27815;43.410;11.852;2023-12-28T06:12:29;9.70;77.10
42147;DHT22;27815;43.410;11.852;2023-12-28T06:16:33;9.60;77.20
42147;DHT22;27815;43.410;11.852;2023-12-28T06:20:36;9.60;77.30
42147;DHT22;27815;43.410;11.852;2023-12-28T06:24:39;9.60;77.40
42147;DHT22;27815;43.410;11.852;2023-12-28T06:28:43;9.60;77.20
42147;DHT22;27815;43.410;11.852;2023-12-28T06:32:46;9.60;77.20
42147;DHT22;27815;43.410;11.852;2023-12-28T06:36:49;9.60;77.20
42147;DHT22;27815;43.410;11.852;2023-12-28T06:40:52;9.60;77.20
42147;DHT22;27815;43.410;11.852;2023-12-28T06:44:55;9.60;77.00
42147;DHT22;27815;43.410;11.852;2023-12-28T06:48:58;9.50;77.10
42147;DHT22;27815;43.410;11.852;2023-12-28T06:53:02;9.40;77.10
42147;DHT22;27815;43.410;11.852;2023-12-28T06:57:05;9.40;77.30
42147;DHT22;27815;43.410;11.852;2023-12-28T07:01:08;9.40;77.20
42147;DHT22;27815;43.410;11.852;2023-12-28T07:05:11;9.30;77.40
42147;DHT22;27815;43.410;11.852;2023-12-28T07:09:16;9.30;77.40
42147;DHT22;27815;43.410;11.852;2023-12-28T07:13:20;9.30;77.40
42147;DHT22;27815;43.410;11.852;2023-12-28T07:17:23;9.40;77.30
42147;DHT22;27815;43.410;11.852;2023-12-28T07:21:25;9.40;77.40
42147;DHT22;27815;43.410;11.852;2023-12-28T07:25:29;9.40;77.30
42147;DHT22;27815;43.410;11.852;2023-12-28T07:29:31;9.40;77.40
42147;DHT22;27815;43.410;11.852;2023-12-28T07:33:34;9.50;77.40
42147;DHT22;27815;43.410;11.852;2023-12-28T07:37:37;9.40;77.30
42147;DHT22;27815;43.410;11.852;2023-12-28T07:41:40;9.40;77.50
42147;DHT22;27815;43.410;11.852;2023-12-28T07:45:43;9.40;77.70
42147;DHT22;27815;43.410;11.852;2023-12-28T07:49:46;9.50;77.50
42147;DHT22;27815;43.410;11.852;2023-12-28T07:53:49;9.50;77.60
42147;DHT22;27815;43.410;11.852;2023-12-28T07:57:52;9.50;77.60
42147;DHT22;27815;43.410;11.852;2023-12-28T08:01:55;9.60;77.50
42147;DHT22;27815;43.410;11.852;2023-12-28T08:05:58;9.60;77.50
42147;DHT22;27815;43.410;11.852;2023-12-28T08:10:01;9.80;77.50
42147;DHT22;27815;43.410;11.852;2023-12-28T08:14:05;9.80;77.40
42147;DHT22;27815;43.410;11.852;2023-12-28T08:18:08;9.90;77.40
42147;DHT22;27815;43.410;11.852;2023-12-28T08:22:11;9.90;77.40
42147;DHT22;27815;43.410;11.852;2023-12-28T08:26:14;9.90;77.40
42147;DHT22;27815;43.410;11.852;2023-12-28T08:30:17;10.00;77.40
42147;DHT22;27815;43.410;11.852;2023-12-28T08:34:21;10.00;77.40
42147;DHT22;27815;43.410;11.852;2023-12-28T08:38:23;10.00;77.50
42147;DHT22;27815;43.410;11.852;2023-12-28T08:42:27;10.10;77.30
42147;DHT22;27815;43.410;11.852;2023-12-28T08:46:30;10.30;77.20
42147;DHT22;27815;43.410;11.852;2023-12-28T08:50:33;10.30;77.10
42147;DHT22;27815;43.410;11.852;2023-12-28T08:54:35;10.30;77.00
42147;DHT22;27815;43.410;11.852;2023-12-28T08:58:39;10.30;77.00
42147;DHT22;27815;43.410;11.852;2023-12-28T09:02:42;10.40;77.10
42147;DHT22;27815;43.410;11.852;2023-12-28T09:06:45;10.40;76.90
42147;DHT22;27815;43.410;11.852;2023-12-28T09:10:48;10.50;76.80
42147;DHT22;27815;43.410;11.852;2023-12-28T09:14:50;10.50;76.80
42147;DHT22;27815;43.410;11.852;2023-12-28T09:18:55;10.50;76.70
42147;DHT22;27815;43.410;11.852;2023-12-28T09:23:00;10.60;76.60
42147;DHT22;27815;43.410;11.852;2023-12-28T09:27:02;10.60;76.50
42147;DHT22;27815;43.410;11.852;2023-12-28T09:31:05;10.50;76.70
42147;DHT22;27815;43.410;11.852;2023-12-28T09:35:09;10.50;76.70
42147;DHT22;27815;43.410;11.852;2023-12-28T09:39:12;10.50;76.80
42147;DHT22;27815;43.410;11.852;2023-12-28T09:43:23;10.50;76.90
42147;DHT22;27815;43.410;11.852;2023-12-28T09:47:27;10.50;76.90
42147;DHT22;27815;43.410;11.852;2023-12-28T09:51:31;10.50;76.90
42147;DHT22;27815;43.410;11.852;2023-12-28T09:55:34;10.50;77.00
42147;DHT22;27815;43.410;11.852;2023-12-28T09:59:38;10.60;76.90
42147;DHT22;27815;43.410;11.852;2023-12-28T10:03:42;10.60;76.70
42147;DHT22;27815;43.410;11.852;2023-12-28T10:07:47;10.60;76.80
42147;DHT22;27815;43.410;11.852;2023-12-28T10:11:54;10.60;76.80
42147;DHT22;27815;43.410;11.852;2023-12-28T10:15:57;10.80;76.70
42147;DHT22;27815;43.410;11.852;2023-12-28T10:20:03;10.90;76.70
42147;DHT22;27815;43.410;11.852;2023-12-28T10:24:10;11.00;76.60
42147;DHT22;27815;43.410;11.852;2023-12-28T10:28:13;11.00;76.60
42147;DHT22;27815;43.410;11.852;2023-12-28T10:32:21;11.10;76.50
42147;DHT22;27815;43.410;11.852;2023-12-28T10:36:27;11.20;76.40
42147;DHT22;27815;43.410;11.852;2023-12-28T10:40:30;11.30;76.10
42147;DHT22;27815;43.410;11.852;2023-12-28T10:44:43;11.50;75.90
42147;DHT22;27815;43.410;11.852;2023-12-28T10:48:47;11.60;75.60
42147;DHT22;27815;43.410;11.852;2023-12-28T10:52:56;11.60;75.60
42147;DHT22;27815;43.410;11.852;2023-12-28T10:57:01;11.70;75.40
42147;DHT22;27815;43.410;11.852;2023-12-28T11:01:09;11.80;75.10
42147;DHT22;27815;43.410;11.852;2023-12-28T11:05:15;11.90;74.90
42147;DHT22;27815;43.410;11.852;2023-12-28T11:09:21;11.90;74.70
42147;DHT22;27815;43.410;11.852;2023-12-28T11:13:24;12.00;74.60
42147;DHT22;27815;43.410;11.852;2023-12-28T11:17:28;12.00;74.60
42147;DHT22;27815;43.410;11.852;2023-12-28T11:21:33;12.10;74.40
42147;DHT22;27815;43.410;11.852;2023-12-28T11:25:36;12.20;74.20
42147;DHT22;27815;43.410;11.852;2023-12-28T11:29:40;12.20;74.10
42147;DHT22;27815;43.410;11.852;2023-12-28T11:33:47;12.20;74.10
42147;DHT22;27815;43.410;11.852;2023-12-28T11:37:53;12.10;74.10
42147;DHT22;27815;43.410;11.852;2023-12-28T11:46:07;12.20;74.00
42147;DHT22;27815;43.410;11.852;2023-12-28T11:50:11;12.10;74.00
42147;DHT22;27815;43.410;11.852;2023-12-28T11:54:15;12.20;74.00
42147;DHT22;27815;43.410;11.852;2023-12-28T11:58:18;12.10;73.90
42147;DHT22;27815;43.410;11.852;2023-12-28T12:02:21;12.20;73.90
42147;DHT22;27815;43.410;11.852;2023-12-28T12:06:24;12.20;73.90
42147;DHT22;27815;43.410;11.852;2023-12-28T12:10:27;12.20;73.90
42147;DHT22;27815;43.410;11.852;2023-12-28T12:14:34;12.20;73.90
42147;DHT22;27815;43.410;11.852;2023-12-28T12:18:37;12.20;74.00
42147;DHT22;27815;43.410;11.852;2023-12-28T12:22:41;12.20;74.00
42147;DHT22;27815;43.410;11.852;2023-12-28T12:26:45;12.20;74.00
42147;DHT22;27815;43.410;11.852;2023-12-28T12:30:54;12.20;74.00
42147;DHT22;27815;43.410;11.852;2023-12-28T12:35:01;12.20;73.90
42147;DHT22;27815;43.410;11.852;2023-12-28T12:39:05;12.20;73.90
42147;DHT22;27815;43.410;11.852;2023-12-28T12:43:08;12.10;74.00
42147;DHT22;27815;43.410;11.852;2023-12-28T12:47:13;12.20;74.00
42147;DHT22;27815;43.410;11.852;2023-12-28T12:51:18;12.20;74.00
42147;DHT22;27815;43.410;11.852;2023-12-28T12:55:21;12.10;74.10
42147;DHT22;27815;43.410;11.852;2023-12-28T12:59:25;12.00;74.20
42147;DHT22;27815;43.410;11.852;2023-12-28T13:03:30;12.10;74.30
42147;DHT22;27815;43.410;11.852;2023-12-28T13:07:33;12.10;74.20
42147;DHT22;27815;43.410;11.852;2023-12-28T13:11:36;12.10;74.10
42147;DHT22;27815;43.410;11.852;2023-12-28T13:15:40;12.10;74.00
42147;DHT22;27815;43.410;11.852;2023-12-28T13:19:43;12.20;74.00
42147;DHT22;27815;43.410;11.852;2023-12-28T13:23:46;12.10;74.00
42147;DHT22;27815;43.410;11.852;2023-12-28T13:27:49;12.10;74.00
42147;DHT22;27815;43.410;11.852;2023-12-28T13:31:52;12.10;74.20
42147;DHT22;27815;43.410;11.852;2023-12-28T13:35:55;12.10;74.30
42147;DHT22;27815;43.410;11.852;2023-12-28T13:39:59;12.10;74.30
42147;DHT22;27815;43.410;11.852;2023-12-28T13:44:02;12.10;74.40
42147;DHT22;27815;43.410;11.852;2023-12-28T13:48:07;12.10;74.30
42147;DHT22;27815;43.410;11.852;2023-12-28T13:52:11;12.20;74.20
42147;DHT22;27815;43.410;11.852;2023-12-28T13:56:14;12.20;74.20
42147;DHT22;27815;43.410;11.852;2023-12-28T14:00:17;12.20;74.20
42147;DHT22;27815;43.410;11.852;2023-12-28T14:04:20;12.20;74.30
42147;DHT22;27815;43.410;11.852;2023-12-28T14:08:23;12.10;74.30
42147;DHT22;27815;43.410;11.852;2023-12-28T14:12:26;12.10;74.30
42147;DHT22;27815;43.410;11.852;2023-12-28T14:16:30;12.20;74.30
42147;DHT22;27815;43.410;11.852;2023-12-28T14:20:33;12.10;74.40
42147;DHT22;27815;43.410;11.852;2023-12-28T14:24:36;12.00;74.60
42147;DHT22;27815;43.410;11.852;2023-12-28T14:28:40;11.90;74.80
42147;DHT22;27815;43.410;11.852;2023-12-28T14:32:44;11.90;74.90
42147;DHT22;27815;43.410;11.852;2023-12-28T14:36:48;11.90;74.90
42147;DHT22;27815;43.410;11.852;2023-12-28T14:40:53;12.00;74.90
42147;DHT22;27815;43.410;11.852;2023-12-28T14:44:56;12.00;74.80
42147;DHT22;27815;43.410;11.852;2023-12-28T14:48:59;12.00;75.00
42147;DHT22;27815;43.410;11.852;2023-12-28T14:53:04;12.00;75.00
42147;DHT22;27815;43.410;11.852;2023-12-28T14:57:07;12.00;75.10
42147;DHT22;27815;43.410;11.852;2023-12-28T15:01:13;12.00;75.10
42147;DHT22;27815;43.410;11.852;2023-12-28T15:05:16;12.00;75.10
42147;DHT22;27815;43.410;11.852;2023-12-28T15:09:19;11.90;75.20
42147;DHT22;27815;43.410;11.852;2023-12-28T15:13:22;11.90;75.30
42147;DHT22;27815;43.410;11.852;2023-12-28T15:17:26;11.90;75.30
42147;DHT22;27815;43.410;11.852;2023-12-28T15:21:29;11.90;75.30
42147;DHT22;27815;43.410;11.852;2023-12-28T15:25:32;11.90;75.40
42147;DHT22;27815;43.410;11.852;2023-12-28T15:29:35;11.90;75.40
42147;DHT22;27815;43.410;11.852;2023-12-28T15:33:38;11.90;75.40
42147;DHT22;27815;43.410;11.852;2023-12-28T15:37:41;11.90;75.50
42147;DHT22;27815;43.410;11.852;2023-12-28T15:41:44;11.80;75.70
42147;DHT22;27815;43.410;11.852;2023-12-28T15:45:49;11.70;75.80
42147;DHT22;27815;43.410;11.852;2023-12-28T15:49:52;11.80;75.90
42147;DHT22;27815;43.410;11.852;2023-12-28T15:53:55;11.80;75.90
42147;DHT22;27815;43.410;11.852;2023-12-28T15:57:58;11.80;75.90
42147;DHT22;27815;43.410;11.852;2023-12-28T16:02:01;11.70;76.00
42147;DHT22;27815;43.410;11.852;2023-12-28T16:06:04;11.50;76.10
42147;DHT22;27815;43.410;11.852;2023-12-28T16:10:07;11.40;76.30
42147;DHT22;27815;43.410;11.852;2023-12-28T16:14:12;11.30;76.50
42147;DHT22;27815;43.410;11.852;2023-12-28T16:18:15;11.30;76.60
42147;DHT22;27815;43.410;11.852;2023-12-28T16:22:18;11.10;76.80
42147;DHT22;27815;43.410;11.852;2023-12-28T16:26:23;11.10;76.90
42147;DHT22;27815;43.410;11.852;2023-12-28T16:30:25;11.20;76.80
42147;DHT22;27815;43.410;11.852;2023-12-28T16:34:29;11.20;76.80
42147;DHT22;27815;43.410;11.852;2023-12-28T16:38:32;11.20;76.80
42147;DHT22;27815;43.410;11.852;2023-12-28T16:42:35;11.10;76.90
42147;DHT22;27815;43.410;11.852;2023-12-28T16:46:45;11.10;77.00
42147;DHT22;27815;43.410;11.852;2023-12-28T16:50:48;11.10;77.10
42147;DHT22;27815;43.410;11.852;2023-12-28T16:54:51;11.10;77.10
42147;DHT22;27815;43.410;11.852;2023-12-28T16:58:55;11.10;77.10
42147;DHT22;27815;43.410;11.852;2023-12-28T17:02:57;11.20;77.10
42147;DHT22;27815;43.410;11.852;2023-12-28T17:07:01;11.20;77.20
42147;DHT22;27815;43.410;11.852;2023-12-28T17:11:07;11.20;77.40
42147;DHT22;27815;43.410;11.852;2023-12-28T17:15:11;11.30;77.40
42147;DHT22;27815;43.410;11.852;2023-12-28T17:19:15;11.40;77.30
42147;DHT22;27815;43.410;11.852;2023-12-28T17:23:37;11.40;77.00
42147;DHT22;27815;43.410;11.852;2023-12-28T17:27:48;11.50;76.70
42147;DHT22;27815;43.410;11.852;2023-12-28T17:31:55;11.50;76.50
42147;DHT22;27815;43.410;11.852;2023-12-28T17:35:59;11.50;76.30
42147;DHT22;27815;43.410;11.852;2023-12-28T17:40:02;11.50;76.10
42147;DHT22;27815;43.410;11.852;2023-12-28T17:44:27;11.50;76.00
42147;DHT22;27815;43.410;11.852;2023-12-28T17:48:33;11.60;75.80
42147;DHT22;27815;43.410;11.852;2023-12-28T17:52:41;11.60;75.70
42147;DHT22;27815;43.410;11.852;2023-12-28T17:56:44;11.60;75.60
42147;DHT22;27815;43.410;11.852;2023-12-28T18:00:47;11.60;75.50
42147;DHT22;27815;43.410;11.852;2023-12-28T18:04:56;11.60;75.30
42147;DHT22;27815;43.410;11.852;2023-12-28T18:08:59;11.60;75.10
42147;DHT22;27815;43.410;11.852;2023-12-28T18:13:02;11.60;74.80
42147;DHT22;27815;43.410;11.852;2023-12-28T18:17:05;11.60;74.60
42147;DHT22;27815;43.410;11.852;2023-12-28T18:21:11;11.60;74.40
42147;DHT22;27815;43.410;11.852;2023-12-28T18:25:14;11.60;74.30
42147;DHT22;27815;43.410;11.852;2023-12-28T18:29:17;11.60;74.30
42147;DHT22;27815;43.410;11.852;2023-12-28T18:33:20;11.60;74.30
42147;DHT22;27815;43.410;11.852;2023-12-28T18:37:25;11.60;74.20
42147;DHT22;27815;43.410;11.852;2023-12-28T18:41:28;11.60;74.20
42147;DHT22;27815;43.410;11.852;2023-12-28T18:45:31;11.60;74.20
42147;DHT22;27815;43.410;11.852;2023-12-28T18:49:34;11.60;74.20
42147;DHT22;27815;43.410;11.852;2023-12-28T18:53:37;11.60;74.40
42147;DHT22;27815;43.410;11.852;2023-12-28T18:57:40;11.60;74.50
42147;DHT22;27815;43.410;11.852;2023-12-28T19:01:43;11.60;74.70
42147;DHT22;27815;43.410;11.852;2023-12-28T19:05:46;11.60;74.80
42147;DHT22;27815;43.410;11.852;2023-12-28T19:09:49;11.60;75.00
42147;DHT22;27815;43.410;11.852;2023-12-28T19:13:52;11.60;75.00
42147;DHT22;27815;43.410;11.852;2023-12-28T19:17:55;11.60;75.00
42147;DHT22;27815;43.410;11.852;2023-12-28T19:21:58;11.60;75.10
42147;DHT22;27815;43.410;11.852;2023-12-28T19:26:01;11.60;75.10
42147;DHT22;27815;43.410;11.852;2023-12-28T19:30:04;11.60;75.10
42147;DHT22;27815;43.410;11.852;2023-12-28T19:34:09;11.60;75.00
42147;DHT22;27815;43.410;11.852;2023-12-28T19:38:12;11.60;75.10
42147;DHT22;27815;43.410;11.852;2023-12-28T19:42:15;11.60;75.00
42147;DHT22;27815;43.410;11.852;2023-12-28T19:46:17;11.60;75.10
42147;DHT22;27815;43.410;11.852;2023-12-28T19:50:21;11.60;75.20
42147;DHT22;27815;43.410;11.852;2023-12-28T19:54:23;11.60;75.40
42147;DHT22;27815;43.410;11.852;2023-12-28T19:58:26;11.70;75.60
42147;DHT22;27815;43.410;11.852;2023-12-28T20:02:29;11.70;75.60
42147;DHT22;27815;43.410;11.852;2023-12-28T20:06:34;11.70;75.50
42147;DHT22;27815;43.410;11.852;2023-12-28T20:10:37;11.80;75.50
42147;DHT22;27815;43.410;11.852;2023-12-28T20:14:40;11.70;75.50
42147;DHT22;27815;43.410;11.852;2023-12-28T20:18:43;11.80;75.40
42147;DHT22;27815;43.410;11.852;2023-12-28T20:22:47;11.80;75.50
42147;DHT22;27815;43.410;11.852;2023-12-28T20:26:51;11.70;75.50
42147;DHT22;27815;43.410;11.852;2023-12-28T20:30:54;11.70;75.50
42147;DHT22;27815;43.410;11.852;2023-12-28T20:34:57;11.80;75.60
42147;DHT22;27815;43.410;11.852;2023-12-28T20:39:00;11.80;75.80
42147;DHT22;27815;43.410;11.852;2023-12-28T20:43:03;11.80;75.80
42147;DHT22;27815;43.410;11.852;2023-12-28T20:47:06;11.80;75.90
42147;DHT22;27815;43.410;11.852;2023-12-28T20:51:09;11.90;75.90
42147;DHT22;27815;43.410;11.852;2023-12-28T20:55:12;11.90;75.90
42147;DHT22;27815;43.410;11.852;2023-12-28T20:59:15;12.00;76.00
42147;DHT22;27815;43.410;11.852;2023-12-28T21:03:18;12.00;76.00
42147;DHT22;27815;43.410;11.852;2023-12-28T21:07:21;12.00;76.00
42147;DHT22;27815;43.410;11.852;2023-12-28T21:11:24;12.10;75.90
42147;DHT22;27815;43.410;11.852;2023-12-28T21:15:27;12.10;75.80
42147;DHT22;27815;43.410;11.852;2023-12-28T21:19:30;12.10;75.70
42147;DHT22;27815;43.410;11.852;2023-12-28T21:23:33;12.00;75.70
42147;DHT22;27815;43.410;11.852;2023-12-28T21:27:36;12.00;75.90
42147;DHT22;27815;43.410;11.852;2023-12-28T21:31:40;12.00;76.00
42147;DHT22;27815;43.410;11.852;2023-12-28T21:35:45;12.00;76.00
42147;DHT22;27815;43.410;11.852;2023-12-28T21:39:51;12.00;76.00
42147;DHT22;27815;43.410;11.852;2023-12-28T21:43:54;12.00;76.10
42147;DHT22;27815;43.410;11.852;2023-12-28T21:47:59;12.00;76.10
42147;DHT22;27815;43.410;11.852;2023-12-28T21:52:03;12.00;76.20
42147;DHT22;27815;43.410;11.852;2023-12-28T21:56:07;12.00;76.30
42147;DHT22;27815;43.410;11.852;2023-12-28T22:00:10;12.00;76.20
42147;DHT22;27815;43.410;11.852;2023-12-28T22:04:16;12.10;76.20
42147;DHT22;27815;43.410;11.852;2023-12-28T22:08:19;12.10;76.20
42147;DHT22;27815;43.410;11.852;2023-12-28T22:12:22;12.10;76.20
42147;DHT22;27815;43.410;11.852;2023-12-28T22:16:27;12.10;76.20
42147;DHT22;27815;43.410;11.852;2023-12-28T22:20:30;12.10;76.30
42147;DHT22;27815;43.410;11.852;2023-12-28T22:24:33;12.20;76.20
42147;DHT22;27815;43.410;11.852;2023-12-28T22:28:39;12.20;76.20
42147;DHT22;27815;43.410;11.852;2023-12-28T22:32:43;12.20;76.20
42147;DHT22;27815;43.410;11.852;2023-12-28T22:36:47;12.20;76.10
42147;DHT22;27815;43.410;11.852;2023-12-28T22:40:51;12.20;76.10
42147;DHT22;27815;43.410;11.852;2023-12-28T22:44:53;12.20;76.10
42147;DHT22;27815;43.410;11.852;2023-12-28T22:48:56;12.20;76.20
42147;DHT22;27815;43.410;11.852;2023-12-28T22:52:59;12.20;76.10
42147;DHT22;27815;43.410;11.852;2023-12-28T22:57:03;12.20;76.00
42147;DHT22;27815;43.410;11.852;2023-12-28T23:01:07;12.20;76.00
42147;DHT22;27815;43.410;11.852;2023-12-28T23:05:10;12.10;75.90
42147;DHT22;27815;43.410;11.852;2023-12-28T23:09:16;12.10;75.70
42147;DHT22;27815;43.410;11.852;2023-12-28T23:13:19;12.00;75.70
42147;DHT22;27815;43.410;11.852;2023-12-28T23:17:25;12.10;75.70
42147;DHT22;27815;43.410;11.852;2023-12-28T23:21:28;12.10;75.60
42147;DHT22;27815;43.410;11.852;2023-12-28T23:25:31;12.00;75.70
42147;DHT22;27815;43.410;11.852;2023-12-28T23:29:35;12.00;75.90
42147;DHT22;27815;43.410;11.852;2023-12-28T23:33:40;12.00;76.30
42147;DHT22;27815;43.410;11.852;2023-12-28T23:37:43;12.00;76.60
42147;DHT22;27815;43.410;11.852;2023-12-28T23:41:47;12.00;76.80
42147;DHT22;27815;43.410;11.852;2023-12-28T23:45:50;12.00;76.70
42147;DHT22;27815;43.410;11.852;2023-12-28T23:49:55;12.00;76.60
42147;DHT22;27815;43.410;11.852;2023-12-28T23:53:58;12.00;76.40
42147;DHT22;27815;43.410;11.852;2023-12-28T23:58:01;11.90;76.20
